Terminal Aerodrome Forecast
Issued by NWS

Home | Current Version | Previous Version | Text Only | Print | Product List | Glossary On
Versions: 1 2 3 4 5 6 7 8 9 10 11 12 13 14 15 16 17 18 19 20
000
FTAK31 PAJN 280300 AAB
TAFASI
TAF AMD
PASI 280358Z 2804/2824 17007KT 6SM -RA BR SCT025 OVC035
      TEMPO 2804/2806 3SM RA BR SCT006 OVC025
     FM280900 17007KT P6SM -RA SCT020 OVC030
     FM281500 20008KT P6SM -RA BKN030 OVC050
     FM282200 23010KT P6SM VCSH BKN035 OVC060=

USA.gov is the U.S. government's official web portal to all federal, state and local government web resources and services.